sensor_id;sensor_type;location;lat;lon;timestamp;pressure;altitude;pressure_sealevel;temperature;humidity
8717;BME280;4395;48.554;8.820;2023-02-03T00:01:52;97154.69;;;4.25;100.00
8717;BME280;4395;48.554;8.820;2023-02-03T00:03:55;97153.41;;;4.20;100.00
8717;BME280;4395;48.554;8.820;2023-02-03T00:05:59;97159.38;;;4.23;100.00
8717;BME280;4395;48.554;8.820;2023-02-03T00:08:02;97064.88;;;3.45;100.00
8717;BME280;4395;48.554;8.820;2023-02-03T00:10:06;97165.59;;;4.00;100.00
8717;BME280;4395;48.554;8.820;2023-02-03T00:12:09;97165.16;;;4.11;100.00
8717;BME280;4395;48.554;8.820;2023-02-03T00:14:13;97169.00;;;4.09;100.00
8717;BME280;4395;48.554;8.820;2023-02-03T00:16:16;97170.81;;;4.08;100.00
8717;BME280;4395;48.554;8.820;2023-02-03T00:18:19;97158.31;;;3.94;100.00
8717;BME280;4395;48.554;8.820;2023-02-03T00:20:22;97161.47;;;4.12;100.00
8717;BME280;4395;48.554;8.820;2023-02-03T00:22:25;97171.75;;;4.15;100.00
8717;BME280;4395;48.554;8.820;2023-02-03T00:24:28;97086.66;;;3.78;100.00
8717;BME280;4395;48.554;8.820;2023-02-03T00:26:30;97144.03;;;4.10;100.00
8717;BME280;4395;48.554;8.820;2023-02-03T00:28:34;97166.25;;;4.17;100.00
8717;BME280;4395;48.554;8.820;2023-02-03T00:30:38;97088.09;;;3.66;100.00
8717;BME280;4395;48.554;8.820;2023-02-03T00:32:40;97180.28;;;4.11;100.00
8717;BME280;4395;48.554;8.820;2023-02-03T00:34:45;97158.41;;;3.86;100.00
8717;BME280;4395;48.554;8.820;2023-02-03T00:36:48;97163.94;;;3.99;100.00
8717;BME280;4395;48.554;8.820;2023-02-03T00:38:51;97170.69;;;3.87;100.00
8717;BME280;4395;48.554;8.820;2023-02-03T00:40:53;97163.59;;;3.79;100.00
8717;BME280;4395;48.554;8.820;2023-02-03T00:42:56;97133.78;;;3.46;100.00
8717;BME280;4395;48.554;8.820;2023-02-03T00:44:59;97157.16;;;3.74;100.00
8717;BME280;4395;48.554;8.820;2023-02-03T00:47:04;97147.03;;;3.92;100.00
8717;BME280;4395;48.554;8.820;2023-02-03T00:49:06;97155.75;;;4.01;100.00
8717;BME280;4395;48.554;8.820;2023-02-03T00:51:09;97148.53;;;4.09;100.00
8717;BME280;4395;48.554;8.820;2023-02-03T00:53:12;97152.19;;;4.08;100.00
8717;BME280;4395;48.554;8.820;2023-02-03T00:55:15;97159.63;;;4.13;100.00
8717;BME280;4395;48.554;8.820;2023-02-03T00:57:18;97160.84;;;4.10;100.00
8717;BME280;4395;48.554;8.820;2023-02-03T00:59:21;97150.47;;;4.15;100.00
8717;BME280;4395;48.554;8.820;2023-02-03T01:01:24;97163.78;;;4.15;100.00
8717;BME280;4395;48.554;8.820;2023-02-03T01:03:29;97178.44;;;4.11;100.00
8717;BME280;4395;48.554;8.820;2023-02-03T01:05:31;97157.06;;;4.05;100.00
8717;BME280;4395;48.554;8.820;2023-02-03T01:07:34;97094.34;;;3.73;100.00
8717;BME280;4395;48.554;8.820;2023-02-03T01:09:37;97149.34;;;4.10;100.00
8717;BME280;4395;48.554;8.820;2023-02-03T01:11:40;97157.25;;;4.18;100.00
8717;BME280;4395;48.554;8.820;2023-02-03T01:13:43;97155.69;;;4.09;100.00
8717;BME280;4395;48.554;8.820;2023-02-03T01:15:46;97168.72;;;4.18;100.00
8717;BME280;4395;48.554;8.820;2023-02-03T01:17:49;97171.50;;;4.25;100.00
8717;BME280;4395;48.554;8.820;2023-02-03T01:19:53;97105.19;;;3.86;100.00
8717;BME280;4395;48.554;8.820;2023-02-03T01:21:56;97167.81;;;4.26;100.00
8717;BME280;4395;48.554;8.820;2023-02-03T01:23:59;97160.66;;;4.27;100.00
8717;BME280;4395;48.554;8.820;2023-02-03T01:26:03;97138.53;;;4.11;100.00
8717;BME280;4395;48.554;8.820;2023-02-03T01:28:06;97104.75;;;3.97;100.00
8717;BME280;4395;48.554;8.820;2023-02-03T01:30:10;97158.19;;;4.25;100.00
8717;BME280;4395;48.554;8.820;2023-02-03T01:32:13;97153.59;;;4.34;100.00
8717;BME280;4395;48.554;8.820;2023-02-03T01:34:15;97135.97;;;4.33;100.00
8717;BME280;4395;48.554;8.820;2023-02-03T01:36:22;97138.00;;;4.31;100.00
8717;BME280;4395;48.554;8.820;2023-02-03T01:38:26;97125.44;;;4.25;100.00
8717;BME280;4395;48.554;8.820;2023-02-03T01:40:28;97138.53;;;4.26;100.00
8717;BME280;4395;48.554;8.820;2023-02-03T01:42:32;97126.72;;;4.29;100.00
8717;BME280;4395;48.554;8.820;2023-02-03T01:44:43;97133.69;;;4.30;100.00
8717;BME280;4395;48.554;8.820;2023-02-03T01:46:48;97135.16;;;4.32;100.00
8717;BME280;4395;48.554;8.820;2023-02-03T01:48:54;97112.56;;;4.28;100.00
8717;BME280;4395;48.554;8.820;2023-02-03T01:50:59;97132.13;;;4.35;100.00
8717;BME280;4395;48.554;8.820;2023-02-03T01:53:08;97123.97;;;4.37;100.00
8717;BME280;4395;48.554;8.820;2023-02-03T01:55:16;97109.28;;;4.41;100.00
8717;BME280;4395;48.554;8.820;2023-02-03T01:57:23;97078.81;;;4.29;100.00
8717;BME280;4395;48.554;8.820;2023-02-03T01:59:29;97036.97;;;3.93;100.00
8717;BME280;4395;48.554;8.820;2023-02-03T02:01:33;97099.19;;;4.36;100.00
8717;BME280;4395;48.554;8.820;2023-02-03T02:03:41;97045.88;;;4.00;100.00
8717;BME280;4395;48.554;8.820;2023-02-03T02:05:48;97124.78;;;4.37;100.00
8717;BME280;4395;48.554;8.820;2023-02-03T02:07:51;97123.69;;;4.32;100.00
8717;BME280;4395;48.554;8.820;2023-02-03T02:09:56;97131.56;;;4.40;100.00
8717;BME280;4395;48.554;8.820;2023-02-03T02:11:59;97121.84;;;4.32;100.00
8717;BME280;4395;48.554;8.820;2023-02-03T02:14:02;97123.22;;;4.43;100.00
8717;BME280;4395;48.554;8.820;2023-02-03T02:16:11;96942.84;;;3.06;100.00
8717;BME280;4395;48.554;8.820;2023-02-03T02:18:34;97112.22;;;4.31;100.00
8717;BME280;4395;48.554;8.820;2023-02-03T02:21:00;97090.63;;;4.41;100.00
8717;BME280;4395;48.554;8.820;2023-02-03T02:26:05;97080.25;;;4.46;100.00
8717;BME280;4395;48.554;8.820;2023-02-03T02:28:40;97078.50;;;4.53;100.00
8717;BME280;4395;48.554;8.820;2023-02-03T02:31:03;97051.81;;;4.46;100.00
8717;BME280;4395;48.554;8.820;2023-02-03T02:33:17;97053.28;;;4.49;100.00
8717;BME280;4395;48.554;8.820;2023-02-03T02:35:31;97050.41;;;4.50;100.00
8717;BME280;4395;48.554;8.820;2023-02-03T02:37:47;96952.22;;;3.90;100.00
8717;BME280;4395;48.554;8.820;2023-02-03T02:39:56;97038.50;;;4.46;100.00
8717;BME280;4395;48.554;8.820;2023-02-03T02:42:05;97039.53;;;4.31;100.00
8717;BME280;4395;48.554;8.820;2023-02-03T02:44:14;96982.66;;;4.02;100.00
8717;BME280;4395;48.554;8.820;2023-02-03T02:46:23;97059.41;;;4.49;100.00
8717;BME280;4395;48.554;8.820;2023-02-03T02:48:31;97054.09;;;4.49;100.00
8717;BME280;4395;48.554;8.820;2023-02-03T02:50:39;97037.41;;;4.41;100.00
8717;BME280;4395;48.554;8.820;2023-02-03T02:52:44;97055.94;;;4.34;100.00
8717;BME280;4395;48.554;8.820;2023-02-03T02:54:51;97049.81;;;4.34;100.00
8717;BME280;4395;48.554;8.820;2023-02-03T02:56:59;97043.75;;;4.40;100.00
8717;BME280;4395;48.554;8.820;2023-02-03T02:59:06;97033.53;;;4.43;100.00
8717;BME280;4395;48.554;8.820;2023-02-03T03:01:09;97045.38;;;4.41;100.00
8717;BME280;4395;48.554;8.820;2023-02-03T03:03:13;97032.72;;;4.43;100.00
8717;BME280;4395;48.554;8.820;2023-02-03T03:05:18;97032.63;;;4.36;100.00
8717;BME280;4395;48.554;8.820;2023-02-03T03:07:26;97020.78;;;4.39;100.00
8717;BME280;4395;48.554;8.820;2023-02-03T03:09:32;97029.97;;;4.36;100.00
8717;BME280;4395;48.554;8.820;2023-02-03T03:11:40;97029.88;;;4.30;100.00
8717;BME280;4395;48.554;8.820;2023-02-03T03:13:48;97028.97;;;4.23;100.00
8717;BME280;4395;48.554;8.820;2023-02-03T03:15:54;97038.06;;;3.84;100.00
8717;BME280;4395;48.554;8.820;2023-02-03T03:18:00;97032.28;;;3.80;100.00
8717;BME280;4395;48.554;8.820;2023-02-03T03:20:08;97039.53;;;4.01;100.00
8717;BME280;4395;48.554;8.820;2023-02-03T03:22:15;97044.69;;;4.17;100.00
8717;BME280;4395;48.554;8.820;2023-02-03T03:24:24;97019.81;;;4.10;100.00
8717;BME280;4395;48.554;8.820;2023-02-03T03:26:33;97021.75;;;4.16;100.00
8717;BME280;4395;48.554;8.820;2023-02-03T03:28:41;97015.03;;;4.20;100.00
8717;BME280;4395;48.554;8.820;2023-02-03T03:30:47;97019.81;;;4.25;100.00
8717;BME280;4395;48.554;8.820;2023-02-03T03:32:50;97017.97;;;4.26;100.00
8717;BME280;4395;48.554;8.820;2023-02-03T03:34:53;96949.28;;;3.85;100.00
8717;BME280;4395;48.554;8.820;2023-02-03T03:37:01;96967.81;;;3.93;100.00
8717;BME280;4395;48.554;8.820;2023-02-03T03:39:13;97017.44;;;4.15;100.00
8717;BME280;4395;48.554;8.820;2023-02-03T03:41:24;97007.16;;;4.12;100.00
8717;BME280;4395;48.554;8.820;2023-02-03T03:43:31;97016.03;;;4.19;100.00
8717;BME280;4395;48.554;8.820;2023-02-03T03:45:40;97016.16;;;4.11;100.00
8717;BME280;4395;48.554;8.820;2023-02-03T03:47:48;97031.19;;;4.04;100.00
8717;BME280;4395;48.554;8.820;2023-02-03T03:49:54;97058.91;;;3.95;100.00
8717;BME280;4395;48.554;8.820;2023-02-03T03:52:02;97058.97;;;3.87;100.00
8717;BME280;4395;48.554;8.820;2023-02-03T03:54:08;97061.00;;;4.00;100.00
8717;BME280;4395;48.554;8.820;2023-02-03T03:56:16;97062.09;;;4.05;100.00
8717;BME280;4395;48.554;8.820;2023-02-03T03:58:24;97046.69;;;3.86;100.00
8717;BME280;4395;48.554;8.820;2023-02-03T04:00:32;97075.22;;;4.07;100.00
8717;BME280;4395;48.554;8.820;2023-02-03T04:02:38;97079.81;;;4.13;100.00
8717;BME280;4395;48.554;8.820;2023-02-03T04:04:43;97078.06;;;4.05;100.00
8717;BME280;4395;48.554;8.820;2023-02-03T04:06:46;97082.66;;;4.11;100.00
8717;BME280;4395;48.554;8.820;2023-02-03T04:08:49;97078.53;;;4.24;100.00
8717;BME280;4395;48.554;8.820;2023-02-03T04:10:51;97077.16;;;4.28;100.00
8717;BME280;4395;48.554;8.820;2023-02-03T04:12:56;97100.28;;;4.27;100.00
8717;BME280;4395;48.554;8.820;2023-02-03T04:14:57;97097.72;;;4.34;100.00
8717;BME280;4395;48.554;8.820;2023-02-03T04:17:00;97069.25;;;4.19;100.00
8717;BME280;4395;48.554;8.820;2023-02-03T04:19:03;97092.84;;;4.37;100.00
8717;BME280;4395;48.554;8.820;2023-02-03T04:21:08;97097.34;;;4.37;100.00
8717;BME280;4395;48.554;8.820;2023-02-03T04:23:11;97108.00;;;4.37;100.00
8717;BME280;4395;48.554;8.820;2023-02-03T04:25:14;97086.88;;;4.35;100.00
8717;BME280;4395;48.554;8.820;2023-02-03T04:27:17;97093.56;;;4.31;100.00
8717;BME280;4395;48.554;8.820;2023-02-03T04:29:21;97098.53;;;4.34;100.00
8717;BME280;4395;48.554;8.820;2023-02-03T04:31:24;97058.53;;;4.13;100.00
8717;BME280;4395;48.554;8.820;2023-02-03T04:33:27;97105.50;;;4.35;100.00
8717;BME280;4395;48.554;8.820;2023-02-03T04:35:29;97101.66;;;4.38;100.00
8717;BME280;4395;48.554;8.820;2023-02-03T04:37:32;97107.81;;;4.38;100.00
8717;BME280;4395;48.554;8.820;2023-02-03T04:39:35;97065.69;;;4.12;100.00
8717;BME280;4395;48.554;8.820;2023-02-03T04:41:38;97105.69;;;4.34;100.00
8717;BME280;4395;48.554;8.820;2023-02-03T04:43:40;97106.78;;;4.39;100.00
8717;BME280;4395;48.554;8.820;2023-02-03T04:45:45;97097.63;;;4.42;100.00
8717;BME280;4395;48.554;8.820;2023-02-03T04:47:50;97088.81;;;4.41;100.00
8717;BME280;4395;48.554;8.820;2023-02-03T04:49:55;97079.34;;;4.39;100.00
8717;BME280;4395;48.554;8.820;2023-02-03T04:51:57;97066.03;;;4.39;100.00
8717;BME280;4395;48.554;8.820;2023-02-03T04:54:00;97080.19;;;4.39;100.00
8717;BME280;4395;48.554;8.820;2023-02-03T04:56:04;97067.88;;;4.38;100.00
8717;BME280;4395;48.554;8.820;2023-02-03T04:58:07;97060.72;;;4.39;100.00
8717;BME280;4395;48.554;8.820;2023-02-03T05:00:11;97042.09;;;4.24;100.00
8717;BME280;4395;48.554;8.820;2023-02-03T05:02:16;97063.94;;;4.34;100.00
8717;BME280;4395;48.554;8.820;2023-02-03T05:04:19;97029.06;;;4.14;100.00
8717;BME280;4395;48.554;8.820;2023-02-03T05:06:22;97026.22;;;4.16;100.00
8717;BME280;4395;48.554;8.820;2023-02-03T05:08:26;97038.34;;;4.33;100.00
8717;BME280;4395;48.554;8.820;2023-02-03T05:10:29;97038.69;;;4.30;100.00
8717;BME280;4395;48.554;8.820;2023-02-03T05:12:32;97037.63;;;4.10;100.00
8717;BME280;4395;48.554;8.820;2023-02-03T05:14:35;97064.75;;;4.35;100.00
8717;BME280;4395;48.554;8.820;2023-02-03T05:16:37;97067.25;;;4.36;100.00
8717;BME280;4395;48.554;8.820;2023-02-03T05:18:42;97061.28;;;4.34;100.00
8717;BME280;4395;48.554;8.820;2023-02-03T05:20:45;96908.59;;;3.40;100.00
8717;BME280;4395;48.554;8.820;2023-02-03T05:22:47;97062.09;;;4.35;100.00
8717;BME280;4395;48.554;8.820;2023-02-03T05:24:50;97069.06;;;4.36;100.00
8717;BME280;4395;48.554;8.820;2023-02-03T05:26:53;97082.66;;;4.41;100.00
8717;BME280;4395;48.554;8.820;2023-02-03T05:28:56;97054.66;;;4.30;100.00
8717;BME280;4395;48.554;8.820;2023-02-03T05:30:59;97069.97;;;4.43;100.00
8717;BME280;4395;48.554;8.820;2023-02-03T05:33:02;97070.34;;;4.40;100.00
8717;BME280;4395;48.554;8.820;2023-02-03T05:35:07;97038.53;;;4.17;100.00
8717;BME280;4395;48.554;8.820;2023-02-03T05:37:10;96969.09;;;3.68;100.00
8717;BME280;4395;48.554;8.820;2023-02-03T05:39:12;97078.16;;;4.41;100.00
8717;BME280;4395;48.554;8.820;2023-02-03T05:41:15;97087.34;;;4.39;100.00
8717;BME280;4395;48.554;8.820;2023-02-03T05:43:36;97094.97;;;4.27;100.00
8717;BME280;4395;48.554;8.820;2023-02-03T05:45:38;97100.00;;;4.37;100.00
8717;BME280;4395;48.554;8.820;2023-02-03T05:47:41;97112.13;;;4.39;100.00
8717;BME280;4395;48.554;8.820;2023-02-03T05:49:44;97105.22;;;4.45;100.00
8717;BME280;4395;48.554;8.820;2023-02-03T05:51:49;97028.16;;;3.93;100.00
8717;BME280;4395;48.554;8.820;2023-02-03T05:53:52;97101.81;;;4.51;100.00
8717;BME280;4395;48.554;8.820;2023-02-03T05:55:55;97102.38;;;4.46;100.00
8717;BME280;4395;48.554;8.820;2023-02-03T05:57:58;97094.22;;;4.48;100.00
8717;BME280;4395;48.554;8.820;2023-02-03T06:00:02;97075.41;;;4.05;100.00
8717;BME280;4395;48.554;8.820;2023-02-03T06:02:12;97098.53;;;4.34;100.00
8717;BME280;4395;48.554;8.820;2023-02-03T06:04:15;97011.28;;;4.00;100.00
8717;BME280;4395;48.554;8.820;2023-02-03T06:06:18;97078.59;;;4.45;100.00
8717;BME280;4395;48.554;8.820;2023-02-03T06:08:22;97079.72;;;4.36;100.00
8717;BME280;4395;48.554;8.820;2023-02-03T06:10:29;97032.47;;;4.08;100.00
8717;BME280;4395;48.554;8.820;2023-02-03T06:12:31;97081.38;;;4.37;100.00
8717;BME280;4395;48.554;8.820;2023-02-03T06:14:34;97078.97;;;4.42;100.00
8717;BME280;4395;48.554;8.820;2023-02-03T06:16:37;97082.00;;;4.39;100.00
8717;BME280;4395;48.554;8.820;2023-02-03T06:18:40;97081.00;;;4.40;100.00
8717;BME280;4395;48.554;8.820;2023-02-03T06:20:43;96987.25;;;3.79;100.00
8717;BME280;4395;48.554;8.820;2023-02-03T06:22:46;97050.09;;;4.09;100.00
8717;BME280;4395;48.554;8.820;2023-02-03T06:24:50;97088.44;;;4.30;100.00
8717;BME280;4395;48.554;8.820;2023-02-03T06:26:52;97079.63;;;4.29;100.00
8717;BME280;4395;48.554;8.820;2023-02-03T06:28:55;97073.47;;;4.29;100.00
8717;BME280;4395;48.554;8.820;2023-02-03T06:30:58;97066.88;;;4.25;100.00
8717;BME280;4395;48.554;8.820;2023-02-03T06:33:01;97067.16;;;4.30;100.00
8717;BME280;4395;48.554;8.820;2023-02-03T06:35:04;97058.78;;;4.33;100.00
8717;BME280;4395;48.554;8.820;2023-02-03T06:37:07;97056.13;;;4.33;100.00
8717;BME280;4395;48.554;8.820;2023-02-03T06:39:10;97053.94;;;4.36;100.00
8717;BME280;4395;48.554;8.820;2023-02-03T06:41:14;97040.91;;;4.27;100.00
8717;BME280;4395;48.554;8.820;2023-02-03T06:43:17;97036.50;;;4.19;100.00
8717;BME280;4395;48.554;8.820;2023-02-03T06:45:20;97034.56;;;4.28;100.00
8717;BME280;4395;48.554;8.820;2023-02-03T06:47:24;97053.38;;;4.26;100.00
8717;BME280;4395;48.554;8.820;2023-02-03T06:49:27;97043.94;;;4.24;100.00
8717;BME280;4395;48.554;8.820;2023-02-03T06:51:30;97038.63;;;4.09;100.00
8717;BME280;4395;48.554;8.820;2023-02-03T06:53:33;97071.94;;;4.19;100.00
8717;BME280;4395;48.554;8.820;2023-02-03T06:55:36;97075.78;;;4.17;100.00
8717;BME280;4395;48.554;8.820;2023-02-03T06:57:44;97078.72;;;4.22;100.00
8717;BME280;4395;48.554;8.820;2023-02-03T06:59:47;97068.81;;;4.16;100.00
8717;BME280;4395;48.554;8.820;2023-02-03T07:01:50;97072.75;;;4.20;100.00
8717;BME280;4395;48.554;8.820;2023-02-03T07:03:53;97071.28;;;4.17;100.00
8717;BME280;4395;48.554;8.820;2023-02-03T07:05:58;97050.44;;;4.21;100.00
8717;BME280;4395;48.554;8.820;2023-02-03T07:08:01;97035.50;;;4.05;100.00
8717;BME280;4395;48.554;8.820;2023-02-03T07:10:04;97050.00;;;4.17;100.00
8717;BME280;4395;48.554;8.820;2023-02-03T07:12:08;97032.75;;;4.13;100.00
8717;BME280;4395;48.554;8.820;2023-02-03T07:14:12;97038.25;;;4.12;100.00
8717;BME280;4395;48.554;8.820;2023-02-03T07:16:15;97057.88;;;4.26;100.00
8717;BME280;4395;48.554;8.820;2023-02-03T07:18:18;97041.91;;;4.26;100.00
8717;BME280;4395;48.554;8.820;2023-02-03T07:20:44;97013.47;;;4.11;100.00
8717;BME280;4395;48.554;8.820;2023-02-03T07:22:51;97035.31;;;4.22;100.00
8717;BME280;4395;48.554;8.820;2023-02-03T07:24:54;97041.66;;;4.20;100.00
8717;BME280;4395;48.554;8.820;2023-02-03T07:26:57;97044.69;;;4.17;100.00
8717;BME280;4395;48.554;8.820;2023-02-03T07:29:00;97047.59;;;4.23;100.00
8717;BME280;4395;48.554;8.820;2023-02-03T07:31:04;97055.22;;;4.26;100.00
8717;BME280;4395;48.554;8.820;2023-02-03T07:33:08;97065.22;;;4.24;100.00
8717;BME280;4395;48.554;8.820;2023-02-03T07:35:11;97050.16;;;4.31;100.00
8717;BME280;4395;48.554;8.820;2023-02-03T07:37:14;97065.69;;;4.27;100.00
8717;BME280;4395;48.554;8.820;2023-02-03T07:39:17;97031.19;;;4.19;100.00
8717;BME280;4395;48.554;8.820;2023-02-03T07:41:19;97028.72;;;4.17;100.00
8717;BME280;4395;48.554;8.820;2023-02-03T07:43:23;97037.59;;;4.39;100.00
8717;BME280;4395;48.554;8.820;2023-02-03T07:45:26;97015.75;;;4.29;100.00
8717;BME280;4395;48.554;8.820;2023-02-03T07:47:30;97038.03;;;4.43;100.00
8717;BME280;4395;48.554;8.820;2023-02-03T07:49:33;97029.03;;;4.44;100.00
8717;BME280;4395;48.554;8.820;2023-02-03T07:51:36;97031.53;;;4.45;100.00
8717;BME280;4395;48.554;8.820;2023-02-03T07:53:39;97046.28;;;4.48;100.00
8717;BME280;4395;48.554;8.820;2023-02-03T07:55:41;97039.31;;;4.47;100.00
8717;BME280;4395;48.554;8.820;2023-02-03T07:57:44;97040.59;;;4.51;100.00
8717;BME280;4395;48.554;8.820;2023-02-03T07:59:47;97051.50;;;4.56;100.00
8717;BME280;4395;48.554;8.820;2023-02-03T08:01:50;97060.63;;;4.47;100.00
8717;BME280;4395;48.554;8.820;2023-02-03T08:03:58;97059.22;;;4.51;100.00
8717;BME280;4395;48.554;8.820;2023-02-03T08:06:02;97074.66;;;4.56;100.00
8717;BME280;4395;48.554;8.820;2023-02-03T08:08:05;97083.47;;;4.56;100.00
8717;BME280;4395;48.554;8.820;2023-02-03T08:10:10;97080.63;;;4.43;100.00
8717;BME280;4395;48.554;8.820;2023-02-03T08:12:13;97098.69;;;4.62;100.00
8717;BME280;4395;48.554;8.820;2023-02-03T08:14:16;97108.16;;;4.50;100.00
8717;BME280;4395;48.554;8.820;2023-02-03T08:16:19;97104.03;;;4.62;100.00
8717;BME280;4395;48.554;8.820;2023-02-03T08:18:21;97108.78;;;4.67;100.00
8717;BME280;4395;48.554;8.820;2023-02-03T08:20:26;97119.16;;;4.76;100.00
8717;BME280;4395;48.554;8.820;2023-02-03T08:22:29;97117.53;;;4.61;100.00
8717;BME280;4395;48.554;8.820;2023-02-03T08:24:31;97115.94;;;4.66;100.00
8717;BME280;4395;48.554;8.820;2023-02-03T08:26:34;97092.47;;;4.55;100.00
8717;BME280;4395;48.554;8.820;2023-02-03T08:28:37;97104.94;;;4.69;100.00
8717;BME280;4395;48.554;8.820;2023-02-03T08:30:40;97098.03;;;4.75;100.00
8717;BME280;4395;48.554;8.820;2023-02-03T08:32:42;97106.38;;;4.72;100.00
8717;BME280;4395;48.554;8.820;2023-02-03T08:34:46;97099.78;;;4.68;100.00
8717;BME280;4395;48.554;8.820;2023-02-03T08:36:50;97092.53;;;4.76;100.00
8717;BME280;4395;48.554;8.820;2023-02-03T08:38:53;97100.47;;;4.91;100.00
8717;BME280;4395;48.554;8.820;2023-02-03T08:40:56;97110.50;;;4.89;100.00
8717;BME280;4395;48.554;8.820;2023-02-03T08:42:58;97102.06;;;4.85;100.00
8717;BME280;4395;48.554;8.820;2023-02-03T08:45:01;97116.16;;;5.01;100.00
8717;BME280;4395;48.554;8.820;2023-02-03T08:47:06;97124.78;;;5.03;100.00
8717;BME280;4395;48.554;8.820;2023-02-03T08:49:09;97127.72;;;5.08;100.00
8717;BME280;4395;48.554;8.820;2023-02-03T08:51:14;97113.13;;;5.04;100.00
8717;BME280;4395;48.554;8.820;2023-02-03T08:53:19;97130.19;;;5.09;100.00
8717;BME280;4395;48.554;8.820;2023-02-03T08:55:22;97133.69;;;5.10;100.00
8717;BME280;4395;48.554;8.820;2023-02-03T08:57:25;97149.56;;;5.18;100.00
8717;BME280;4395;48.554;8.820;2023-02-03T08:59:27;97147.91;;;5.17;100.00
8717;BME280;4395;48.554;8.820;2023-02-03T09:01:30;97145.16;;;5.25;100.00
8717;BME280;4395;48.554;8.820;2023-02-03T09:03:33;97145.69;;;5.35;100.00
8717;BME280;4395;48.554;8.820;2023-02-03T09:05:36;97072.00;;;4.92;100.00
8717;BME280;4395;48.554;8.820;2023-02-03T09:07:39;97125.19;;;5.36;100.00
8717;BME280;4395;48.554;8.820;2023-02-03T09:09:43;97127.28;;;5.40;100.00
8717;BME280;4395;48.554;8.820;2023-02-03T09:11:46;97124.84;;;5.45;100.00
8717;BME280;4395;48.554;8.820;2023-02-03T09:13:49;97139.59;;;5.41;100.00
8717;BME280;4395;48.554;8.820;2023-02-03T09:15:52;97135.47;;;5.39;100.00
8717;BME280;4395;48.554;8.820;2023-02-03T09:17:54;97140.88;;;5.45;100.00
8717;BME280;4395;48.554;8.820;2023-02-03T09:19:58;97133.94;;;5.51;100.00
8717;BME280;4395;48.554;8.820;2023-02-03T09:22:01;97050.88;;;4.90;100.00
8717;BME280;4395;48.554;8.820;2023-02-03T09:24:04;97096.09;;;5.41;100.00
8717;BME280;4395;48.554;8.820;2023-02-03T09:26:10;97099.47;;;5.49;100.00
8717;BME280;4395;48.554;8.820;2023-02-03T09:28:13;97112.59;;;5.51;100.00
8717;BME280;4395;48.554;8.820;2023-02-03T09:30:17;97117.56;;;5.54;100.00
8717;BME280;4395;48.554;8.820;2023-02-03T09:32:19;97098.94;;;5.61;100.00
8717;BME280;4395;48.554;8.820;2023-02-03T09:34:22;97097.59;;;5.71;100.00
8717;BME280;4395;48.554;8.820;2023-02-03T09:36:25;97111.44;;;5.81;100.00
8717;BME280;4395;48.554;8.820;2023-02-03T09:38:28;97114.50;;;5.78;100.00
8717;BME280;4395;48.554;8.820;2023-02-03T09:40:33;97120.59;;;5.72;100.00
8717;BME280;4395;48.554;8.820;2023-02-03T09:45:17;97127.78;;;5.72;100.00
8717;BME280;4395;48.554;8.820;2023-02-03T09:47:25;97086.81;;;5.58;100.00
8717;BME280;4395;48.554;8.820;2023-02-03T09:49:36;97122.75;;;5.84;100.00
8717;BME280;4395;48.554;8.820;2023-02-03T09:51:43;97126.75;;;5.94;100.00
8717;BME280;4395;48.554;8.820;2023-02-03T09:53:50;97118.59;;;6.02;100.00
8717;BME280;4395;48.554;8.820;2023-02-03T09:55:57;97098.75;;;6.11;100.00
8717;BME280;4395;48.554;8.820;2023-02-03T09:58:03;97118.38;;;5.97;100.00
8717;BME280;4395;48.554;8.820;2023-02-03T10:00:15;97043.09;;;5.53;100.00
8717;BME280;4395;48.554;8.820;2023-02-03T10:02:27;97085.56;;;5.54;100.00
8717;BME280;4395;48.554;8.820;2023-02-03T10:04:36;97115.84;;;5.89;100.00
8717;BME280;4395;48.554;8.820;2023-02-03T10:06:43;97125.78;;;6.02;100.00
8717;BME280;4395;48.554;8.820;2023-02-03T10:08:58;97120.88;;;6.05;100.00
8717;BME280;4395;48.554;8.820;2023-02-03T10:11:19;97110.50;;;6.17;100.00
8717;BME280;4395;48.554;8.820;2023-02-03T10:13:29;97128.56;;;6.15;100.00
8717;BME280;4395;48.554;8.820;2023-02-03T10:15:57;97108.75;;;6.31;100.00
8717;BME280;4395;48.554;8.820;2023-02-03T10:18:05;97108.66;;;6.18;100.00
8717;BME280;4395;48.554;8.820;2023-02-03T10:20:13;97112.34;;;6.17;100.00
8717;BME280;4395;48.554;8.820;2023-02-03T10:22:20;97089.94;;;6.11;100.00
8717;BME280;4395;48.554;8.820;2023-02-03T10:24:27;97094.97;;;5.99;100.00
8717;BME280;4395;48.554;8.820;2023-02-03T10:26:31;97013.47;;;5.69;100.00
8717;BME280;4395;48.554;8.820;2023-02-03T10:28:38;97108.25;;;6.21;100.00
8717;BME280;4395;48.554;8.820;2023-02-03T10:30:47;97080.53;;;6.22;100.00
8717;BME280;4395;48.554;8.820;2023-02-03T10:32:53;97060.47;;;5.98;100.00
8717;BME280;4395;48.554;8.820;2023-02-03T10:34:56;97091.25;;;6.28;100.00
8717;BME280;4395;48.554;8.820;2023-02-03T10:37:02;97095.78;;;6.28;100.00
8717;BME280;4395;48.554;8.820;2023-02-03T10:39:16;97103.28;;;6.11;100.00
8717;BME280;4395;48.554;8.820;2023-02-03T10:41:22;96999.44;;;5.60;100.00
8717;BME280;4395;48.554;8.820;2023-02-03T10:43:27;97103.56;;;6.23;100.00
8717;BME280;4395;48.554;8.820;2023-02-03T10:45:57;97112.00;;;5.77;100.00
8717;BME280;4395;48.554;8.820;2023-02-03T10:48:00;97121.41;;;5.73;100.00
8717;BME280;4395;48.554;8.820;2023-02-03T10:50:07;97110.38;;;5.76;100.00
8717;BME280;4395;48.554;8.820;2023-02-03T10:52:26;97110.94;;;6.21;100.00
8717;BME280;4395;48.554;8.820;2023-02-03T10:54:31;97109.53;;;6.25;100.00
8717;BME280;4395;48.554;8.820;2023-02-03T10:56:35;97125.34;;;6.26;100.00
8717;BME280;4395;48.554;8.820;2023-02-03T10:58:46;97111.06;;;6.40;100.00
8717;BME280;4395;48.554;8.820;2023-02-03T11:00:54;97099.59;;;6.47;100.00
8717;BME280;4395;48.554;8.820;2023-02-03T11:03:04;97088.53;;;6.56;100.00
8717;BME280;4395;48.554;8.820;2023-02-03T11:05:09;97073.16;;;6.65;100.00
8717;BME280;4395;48.554;8.820;2023-02-03T11:07:23;97059.09;;;6.43;100.00
8717;BME280;4395;48.554;8.820;2023-02-03T11:09:30;97048.16;;;6.86;100.00
8717;BME280;4395;48.554;8.820;2023-02-03T11:11:34;97049.47;;;7.16;100.00
8717;BME280;4395;48.554;8.820;2023-02-03T11:13:42;97045.38;;;7.27;100.00
8717;BME280;4395;48.554;8.820;2023-02-03T11:15:56;97031.41;;;7.51;100.00
8717;BME280;4395;48.554;8.820;2023-02-03T11:18:02;97032.19;;;7.12;100.00
8717;BME280;4395;48.554;8.820;2023-02-03T11:20:13;97021.28;;;7.07;100.00
8717;BME280;4395;48.554;8.820;2023-02-03T11:22:34;97021.22;;;6.81;100.00
8717;BME280;4395;48.554;8.820;2023-02-03T11:24:40;97014.47;;;6.91;100.00
8717;BME280;4395;48.554;8.820;2023-02-03T11:26:46;97032.41;;;6.50;100.00
8717;BME280;4395;48.554;8.820;2023-02-03T11:28:52;97033.59;;;6.95;100.00